Time;durP1;ratioP1;P1;durP2;ratioP2;P2;SDS_P1;SDS_P2;PMS_P1;PMS_P2;Temp;Humidity;BMP_temperature;BMP_pressure;BME280_temperature;BME280_humidity;BME280_pressure;Samples;Min_cycle;Max_cycle;Signal;HPM_P1;HPM_P2
2022/11/20 00:02:10;;;;;;;18.75;14.18;;;;;;;-2.89;98.49;101281.41;5007447;28;20050;-67
2022/11/20 00:04:36;;;;;;;18.83;13.35;;;;;;;-2.90;98.53;101282.38;5006950;28;20052;-66
2022/11/20 00:07:01;;;;;;;21.13;14.73;;;;;;;-2.89;98.63;101284.09;5004985;28;20046;-66
2022/11/20 00:09:26;;;;;;;22.45;15.98;;;;;;;-2.90;98.38;101283.22;5007540;28;20037;-67
2022/11/20 00:11:51;;;;;;;20.77;14.43;;;;;;;-2.90;98.14;101277.00;5007648;28;20022;-67
2022/11/20 00:14:17;;;;;;;21.67;15.35;;;;;;;-2.89;98.09;101273.34;5006306;28;20439;-66
2022/11/20 00:16:42;;;;;;;19.15;14.18;;;;;;;-2.86;97.58;101273.09;5007315;28;20030;-67
2022/11/20 00:19:07;;;;;;;19.00;14.15;;;;;;;-2.89;97.71;101274.22;5007204;28;20030;-67
2022/11/20 00:21:33;;;;;;;19.73;14.55;;;;;;;-2.84;97.13;101273.78;5006317;28;20409;-66
2022/11/20 00:23:58;;;;;;;18.38;12.98;;;;;;;-2.62;94.73;101264.72;5006988;28;20033;-66
2022/11/20 00:26:26;;;;;;;15.18;10.73;;;;;;;-2.41;92.12;101256.56;5006646;28;20492;-66
2022/11/20 00:28:53;;;;;;;17.53;12.10;;;;;;;-2.38;91.33;101250.94;5006440;28;20040;-67
2022/11/20 00:31:19;;;;;;;18.77;12.38;;;;;;;-2.44;91.52;101262.22;5007945;28;20037;-66
2022/11/20 00:33:45;;;;;;;21.80;14.00;;;;;;;-2.67;92.82;101256.19;5006446;28;20997;-66
2022/11/20 00:36:13;;;;;;;20.10;14.88;;;;;;;-3.02;94.89;101260.13;5004124;28;20069;-66
2022/11/20 00:38:38;;;;;;;20.83;16.17;;;;;;;-3.07;96.23;101280.31;5006849;28;20053;-66
2022/11/20 00:41:07;;;;;;;23.35;15.90;;;;;;;-3.09;97.21;101266.16;5007061;28;20477;-66
2022/11/20 00:43:33;;;;;;;20.48;14.85;;;;;;;-3.11;97.07;101265.44;5006480;28;20030;-66
2022/11/20 00:46:00;;;;;;;21.42;15.32;;;;;;;-3.14;97.29;101271.94;5005039;28;20025;-66
2022/11/20 00:48:26;;;;;;;21.92;15.15;;;;;;;-3.15;97.66;101270.22;5006315;28;20065;-67
2022/11/20 00:50:51;;;;;;;20.52;14.70;;;;;;;-3.10;97.81;101264.44;5008066;28;20446;-67
2022/11/20 00:53:17;;;;;;;21.02;15.98;;;;;;;-3.11;97.93;101258.22;5006720;28;20065;-66
2022/11/20 00:55:42;;;;;;;21.58;15.88;;;;;;;-3.13;97.95;101265.56;5006479;28;20457;-66
2022/11/20 00:58:07;;;;;;;23.05;15.85;;;;;;;-3.16;97.89;101263.16;4996787;28;20050;-67
2022/11/20 01:00:32;;;;;;;22.45;15.95;;;;;;;-3.15;97.91;101262.16;4987858;28;20102;-66
2022/11/20 01:02:58;;;;;;;22.38;16.10;;;;;;;-3.17;98.20;101267.66;4987801;28;20061;-66
2022/11/20 01:05:23;;;;;;;22.52;16.00;;;;;;;-3.20;98.12;101259.84;4998001;28;20030;-67
2022/11/20 01:07:48;;;;;;;22.95;16.45;;;;;;;-3.19;98.56;101264.28;5006227;28;20093;-66
2022/11/20 01:10:14;;;;;;;21.75;16.27;;;;;;;-3.19;98.46;101269.66;5005614;28;20061;-66
2022/11/20 01:12:39;;;;;;;21.73;17.23;;;;;;;-3.20;98.31;101267.06;5006844;28;20089;-67
2022/11/20 01:15:05;;;;;;;23.63;18.17;;;;;;;-3.20;98.26;101267.06;5003890;28;20022;-66
2022/11/20 01:17:31;;;;;;;23.88;17.60;;;;;;;-3.23;98.40;101275.41;5007148;28;20041;-66
2022/11/20 01:19:56;;;;;;;21.13;15.32;;;;;;;-3.18;98.41;101262.44;5010806;28;20033;-66
2022/11/20 01:22:21;;;;;;;21.92;16.30;;;;;;;-3.29;98.55;101263.34;5010789;28;20026;-66
2022/11/20 01:24:47;;;;;;;21.55;16.05;;;;;;;-3.33;98.92;101261.91;5011428;28;20038;-66
2022/11/20 01:27:12;;;;;;;19.83;15.10;;;;;;;-3.35;99.11;101257.63;5009626;28;20048;-66
2022/11/20 01:29:37;;;;;;;21.00;15.55;;;;;;;-3.37;98.91;101255.09;5009159;28;20038;-66
2022/11/20 01:32:03;;;;;;;23.75;17.63;;;;;;;-3.41;98.88;101256.31;5010589;28;20117;-67
2022/11/20 01:34:28;;;;;;;22.05;16.23;;;;;;;-3.44;99.23;101259.28;5009268;28;20036;-67
2022/11/20 01:36:53;;;;;;;23.88;16.55;;;;;;;-3.49;98.92;101258.81;5010208;28;20091;-66
2022/11/20 01:39:21;;;;;;;24.05;16.75;;;;;;;-3.53;99.18;101252.00;5010792;28;20030;-66
2022/11/20 01:44:53;;;;;;;27.08;18.98;;;;;;;-3.52;99.98;101254.56;5008099;28;20724;-66
2022/11/20 01:47:40;;;;;;;26.33;18.00;;;;;;;-3.48;100.00;101260.53;4990468;28;20486;-67
2022/11/20 01:50:16;;;;;;;25.42;17.88;;;;;;;-3.48;100.00;101257.84;4990954;28;20042;-67
2022/11/20 01:53:05;;;;;;;23.02;16.55;;;;;;;-3.47;100.00;101265.75;4990995;28;20022;-66
2022/11/20 01:55:49;;;;;;;21.05;15.90;;;;;;;-3.51;99.78;101256.25;5002619;28;20038;-66
2022/11/20 01:58:16;;;;;;;22.55;15.95;;;;;;;-3.55;99.65;101253.94;5008809;28;20728;-66
2022/11/20 02:00:41;;;;;;;21.40;15.97;;;;;;;-3.56;99.54;101257.63;5010168;28;20501;-66
2022/11/20 02:03:11;;;;;;;22.70;16.30;;;;;;;-3.57;99.71;101259.47;5010333;28;20034;-66
2022/11/20 02:05:39;;;;;;;21.15;16.08;;;;;;;-3.58;100.00;101256.91;5008609;28;20030;-66
2022/11/20 02:08:06;;;;;;;23.65;16.23;;;;;;;-3.59;100.00;101266.81;5009094;28;20432;-66
2022/11/20 02:10:32;;;;;;;22.13;16.38;;;;;;;-3.59;100.00;101266.81;5009830;28;20030;-66
2022/11/20 02:15:43;;;;;;;24.40;17.35;;;;;;;-3.62;100.00;101258.16;5008302;28;20044;-66
2022/11/20 02:18:11;;;;;;;21.95;16.30;;;;;;;-3.63;99.73;101251.09;5008355;28;20065;-66
2022/11/20 02:20:37;;;;;;;20.43;15.27;;;;;;;-3.56;98.78;101244.19;5009619;28;20487;-66
2022/11/20 02:23:08;;;;;;;21.08;15.57;;;;;;;-3.74;99.30;101246.63;5008492;28;20025;-66
2022/11/20 02:25:36;;;;;;;21.92;16.02;;;;;;;-3.85;99.65;101252.88;5007607;28;20451;-66
2022/11/20 02:28:02;;;;;;;21.65;16.17;;;;;;;-3.87;100.00;101254.81;5006462;28;20053;-66
2022/11/20 02:30:27;;;;;;;22.13;15.57;;;;;;;-3.86;100.00;101245.78;5007197;28;20064;-66
2022/11/20 02:32:53;;;;;;;22.92;16.63;;;;;;;-3.86;100.00;101239.56;5009159;28;20105;-67
2022/11/20 02:35:18;;;;;;;25.60;18.70;;;;;;;-3.89;100.00;101245.22;5008150;28;20037;-66
2022/11/20 02:37:45;;;;;;;24.80;17.90;;;;;;;-3.90;100.00;101239.00;5008094;28;20121;-66
2022/11/20 02:40:11;;;;;;;23.55;16.38;;;;;;;-3.93;100.00;101260.72;5008896;28;20080;-66
2022/11/20 02:42:37;;;;;;;22.42;17.23;;;;;;;-3.95;100.00;101249.25;5023950;28;20533;-66
2022/11/20 02:45:06;;;;;;;23.55;15.63;;;;;;;-3.93;100.00;101244.59;5006342;28;20009;-66
2022/11/20 02:47:32;;;;;;;24.65;17.63;;;;;;;-3.91;100.00;101242.63;5008301;28;20072;-66
2022/11/20 02:49:57;;;;;;;24.17;17.20;;;;;;;-3.88;100.00;101246.91;5008537;28;20018;-66
2022/11/20 02:52:23;;;;;;;22.95;16.38;;;;;;;-3.86;100.00;101245.78;5007170;28;20121;-66
2022/11/20 02:54:48;;;;;;;22.38;16.13;;;;;;;-3.85;100.00;101249.31;5008321;28;20049;-66
2022/11/20 02:57:13;;;;;;;21.42;15.70;;;;;;;-3.87;100.00;101245.94;5008548;28;20388;-66
2022/11/20 02:59:39;;;;;;;22.00;15.60;;;;;;;-3.88;100.00;101242.41;5007510;28;20064;-66
2022/11/20 03:02:04;;;;;;;22.63;16.05;;;;;;;-3.92;100.00;101249.84;5008065;28;20037;-66
2022/11/20 03:04:30;;;;;;;21.92;15.30;;;;;;;-3.88;100.00;101245.06;5005449;28;20026;-67
2022/11/20 03:06:55;;;;;;;20.75;14.68;;;;;;;-3.80;100.00;101234.56;5006057;28;20033;-67
2022/11/20 03:09:20;;;;;;;20.95;15.52;;;;;;;-3.83;100.00;101229.44;5007694;28;20033;-66
2022/11/20 03:11:45;;;;;;;22.23;15.60;;;;;;;-3.79;100.00;101236.25;5008355;28;20038;-66
2022/11/20 03:14:11;;;;;;;21.13;15.43;;;;;;;-3.73;100.00;101224.16;5006816;28;20634;-66
2022/11/20 03:16:36;;;;;;;21.10;15.50;;;;;;;-3.70;100.00;101222.09;5008635;28;20106;-66
2022/11/20 03:19:01;;;;;;;23.88;15.50;;;;;;;-3.67;100.00;101224.47;5007156;28;20061;-66
2022/11/20 03:21:26;;;;;;;20.30;14.50;;;;;;;-3.62;100.00;101216.03;5015372;28;20387;-66
2022/11/20 03:23:53;;;;;;;20.08;15.18;;;;;;;-3.64;100.00;101222.53;5018289;28;20034;-66
2022/11/20 03:26:22;;;;;;;23.88;16.35;;;;;;;-3.61;100.00;101211.53;5008454;28;20038;-66
2022/11/20 03:28:50;;;;;;;20.92;15.43;;;;;;;-3.61;100.00;101216.91;5007476;28;20032;-66
2022/11/20 03:31:17;;;;;;;19.77;15.13;;;;;;;-3.62;100.00;101216.03;5006116;28;20033;-66
2022/11/20 03:33:43;;;;;;;20.35;14.95;;;;;;;-3.61;100.00;101207.00;5007399;28;20469;-66
2022/11/20 03:36:11;;;;;;;20.70;15.27;;;;;;;-3.60;100.00;101210.53;5007571;28;20037;-66
2022/11/20 03:38:36;;;;;;;;;;;;;;;-3.55;100.00;101224.41;5007650;28;20112;-66
2022/11/20 03:41:09;;;;;;;20.05;15.02;;;;;;;-3.63;100.00;101218.88;5006518;28;20016;-66
2022/11/20 03:43:35;;;;;;;20.75;15.52;;;;;;;-3.70;100.00;101215.84;5006997;28;20109;-66
2022/11/20 03:46:01;;;;;;;22.48;16.10;;;;;;;-3.72;100.00;101207.91;5004840;28;20137;-66
2022/11/20 03:48:27;;;;;;;23.20;16.45;;;;;;;-3.72;100.00;101204.38;5007434;28;20175;-66
2022/11/20 03:50:53;;;;;;;22.70;16.48;;;;;;;-3.75;100.00;101204.63;5008206;28;20034;-66
2022/11/20 03:53:19;;;;;;;20.02;15.43;;;;;;;-3.77;100.00;101207.47;5005899;28;20054;-66
2022/11/20 03:55:45;;;;;;;22.10;15.23;;;;;;;-3.78;100.00;101204.91;5005952;28;20076;-66
2022/11/20 03:58:10;;;;;;;20.10;14.50;;;;;;;-3.68;100.00;101197.78;5006572;28;20417;-66
2022/11/20 04:00:35;;;;;;;22.27;15.60;;;;;;;-3.87;100.00;101190.44;5005977;28;20033;-67
2022/11/20 04:03:02;;;;;;;20.27;15.13;;;;;;;-3.92;100.00;101192.66;5007289;28;20030;-66
2022/11/20 04:05:27;;;;;;;21.08;15.32;;;;;;;-3.96;100.00;101188.50;5007052;28;20033;-66
2022/11/20 04:07:52;;;;;;;22.08;15.63;;;;;;;-3.98;100.00;101187.81;5007286;28;20349;-67
2022/11/20 04:10:18;;;;;;;22.00;15.15;;;;;;;-4.01;100.00;101185.38;5007165;28;20044;-66
2022/11/20 04:12:43;;;;;;;20.75;14.88;;;;;;;-4.05;100.00;101189.31;5004854;28;20041;-66
2022/11/20 04:15:09;;;;;;;19.92;15.00;;;;;;;-4.04;100.00;101193.69;5006183;28;20480;-66
2022/11/20 04:17:35;;;;;;;21.90;15.98;;;;;;;-4.02;100.00;101181.84;5006922;28;20056;-66
2022/11/20 04:20:01;;;;;;;22.48;15.13;;;;;;;-3.99;100.00;101178.06;5007114;28;20033;-67
2022/11/20 04:22:27;;;;;;;18.73;15.10;;;;;;;-4.02;100.00;101186.34;5005667;28;20049;-66
2022/11/20 04:24:52;;;;;;;19.55;14.77;;;;;;;-4.04;100.00;101183.81;5003441;28;20116;-66
2022/11/20 04:27:17;;;;;;;19.45;14.93;;;;;;;-4.04;100.00;101185.63;5006503;28;20030;-66
2022/11/20 04:29:43;;;;;;;20.15;14.88;;;;;;;-4.09;100.00;101175.28;5006575;28;20073;-66
2022/11/20 04:32:08;;;;;;;19.75;15.10;;;;;;;-4.08;100.00;101187.72;5005881;28;20176;-66
2022/11/20 04:34:33;;;;;;;21.65;15.18;;;;;;;-4.13;100.00;101178.34;5006979;28;20033;-66
2022/11/20 04:36:59;;;;;;;21.48;15.13;;;;;;;-4.16;100.00;101163.34;5006409;28;20036;-66
2022/11/20 04:39:24;;;;;;;21.50;15.65;;;;;;;-4.21;100.00;101171.81;5005926;28;20048;-66
2022/11/20 04:42:28;;;;;;;22.58;14.98;;;;;;;-4.25;100.00;101177.56;5004732;28;20030;-66
2022/11/20 04:44:35;;;;;;;20.33;14.43;;;;;;;-4.27;100.00;101172.28;5002938;28;20034;-66
2022/11/20 04:47:00;;;;;;;21.95;15.73;;;;;;;-4.25;100.00;101175.72;5002875;28;20033;-66
2022/11/20 04:49:25;;;;;;;20.23;15.32;;;;;;;-4.21;100.00;101182.53;5006844;28;20113;-67
2022/11/20 04:51:53;;;;;;;20.13;14.63;;;;;;;-4.18;100.00;101176.06;5005935;28;20022;-67
2022/11/20 04:54:20;;;;;;;19.27;14.63;;;;;;;-4.14;100.00;101173.97;5007200;28;20026;-66
2022/11/20 04:56:47;;;;;;;20.80;15.45;;;;;;;-4.10;100.00;101173.59;5007140;28;20030;-66
2022/11/20 04:59:12;;;;;;;19.38;15.25;;;;;;;-4.04;100.00;101169.53;5005756;28;20033;-67
2022/11/20 05:01:38;;;;;;;21.45;15.55;;;;;;;-4.02;100.00;101167.56;5003314;28;20052;-66
2022/11/20 05:04:03;;;;;;;21.02;15.75;;;;;;;-4.03;100.00;101161.34;5003253;28;20034;-65
2022/11/20 05:06:28;;;;;;;21.33;15.95;;;;;;;-4.02;100.00;101154.16;5006672;28;20022;-66
2022/11/20 05:08:54;;;;;;;19.95;15.77;;;;;;;-4.04;100.00;101156.97;5006667;28;20080;-66
2022/11/20 05:11:20;;;;;;;21.73;14.82;;;;;;;-4.05;100.00;101154.44;5005378;28;20036;-66
2022/11/20 05:13:45;;;;;;;21.77;15.82;;;;;;;-4.05;100.00;101149.06;5005388;28;20052;-66
2022/11/20 05:16:16;;;;;;;20.65;15.18;;;;;;;-4.07;100.00;101148.31;5006481;28;20117;-66
2022/11/20 05:18:42;;;;;;;23.20;15.98;;;;;;;-4.06;100.00;101141.97;5006534;28;20042;-66
2022/11/20 05:21:09;;;;;;;20.70;14.77;;;;;;;-4.06;100.00;101136.63;5005491;28;20030;-66
2022/11/20 05:23:35;;;;;;;20.73;14.67;;;;;;;-4.04;100.00;101145.41;5011526;28;20022;-67
2022/11/20 05:26:01;;;;;;;20.73;13.95;;;;;;;-4.00;100.00;101147.69;5006570;28;20022;-67
2022/11/20 05:28:28;;;;;;;18.33;13.27;;;;;;;-4.03;100.00;101144.41;5005629;28;20056;-67
2022/11/20 05:30:54;;;;;;;20.10;13.57;;;;;;;-4.06;100.00;101148.19;5005118;28;20045;-66
2022/11/20 05:33:19;;;;;;;21.02;14.85;;;;;;;-4.14;100.00;101144.47;4997406;28;20117;-66
2022/11/20 05:35:45;;;;;;;22.85;15.38;;;;;;;-4.21;100.00;101142.31;5006380;28;20068;-66
2022/11/20 05:38:10;;;;;;;20.95;15.40;;;;;;;-4.24;100.00;101145.22;5005745;28;20053;-67
2022/11/20 05:40:36;;;;;;;22.08;16.10;;;;;;;-4.20;100.00;101146.69;5006452;28;20030;-66
2022/11/20 05:43:01;;;;;;;21.60;15.55;;;;;;;-4.12;100.00;101143.34;5004376;28;20030;-67
2022/11/20 05:45:27;;;;;;;21.40;15.65;;;;;;;-4.06;100.00;101140.13;5006431;28;20072;-67
2022/11/20 05:47:53;;;;;;;19.75;15.38;;;;;;;-4.03;100.00;101147.09;5002876;28;20018;-67
2022/11/20 05:50:18;;;;;;;21.80;16.02;;;;;;;-3.97;100.00;101160.84;5006473;28;20061;-67
2022/11/20 05:52:44;;;;;;;22.65;16.30;;;;;;;-3.89;100.00;101160.19;5004226;28;20866;-67
2022/11/20 05:55:09;;;;;;;21.17;15.63;;;;;;;-3.84;100.00;101162.50;5004651;28;20080;-66
2022/11/20 05:57:35;;;;;;;22.27;16.30;;;;;;;-3.80;100.00;101159.44;5004989;28;20088;-67
2022/11/20 06:00:00;;;;;;;22.52;15.98;;;;;;;-3.74;100.00;101166.09;5006187;28;20022;-67
2022/11/20 06:02:25;;;;;;;21.98;15.90;;;;;;;-3.68;100.00;101163.75;5006554;28;20061;-67
2022/11/20 06:04:51;;;;;;;21.40;15.65;;;;;;;-3.60;100.00;101156.84;5009491;28;20029;-67
2022/11/20 06:07:16;;;;;;;21.95;15.77;;;;;;;-3.55;100.00;101163.53;5009676;28;20388;-67
2022/11/20 06:09:41;;;;;;;22.88;17.02;;;;;;;-3.52;100.00;101167.78;5007926;28;20069;-67
2022/11/20 06:12:07;;;;;;;22.92;16.60;;;;;;;-3.50;100.00;101171.19;5008862;28;20026;-67
2022/11/20 06:14:32;;;;;;;24.52;16.00;;;;;;;-3.48;100.00;101169.25;5008887;28;20037;-67
2022/11/20 06:16:57;;;;;;;24.85;16.90;;;;;;;-3.44;100.00;101173.38;5009198;28;20053;-67
2022/11/20 06:19:23;;;;;;;22.45;15.98;;;;;;;-3.41;100.00;101175.78;5009344;28;20109;-67
2022/11/20 06:21:49;;;;;;;20.73;16.00;;;;;;;-3.36;100.00;101170.84;5009065;28;20047;-67
2022/11/20 06:24:15;;;;;;;22.77;16.38;;;;;;;-3.33;100.00;101173.28;5007555;28;20574;-67
2022/11/20 06:26:40;;;;;;;23.00;16.05;;;;;;;-3.32;100.00;101164.25;5009173;28;20046;-67
2022/11/20 06:29:06;;;;;;;24.75;16.40;;;;;;;-3.28;100.00;101157.63;5006672;28;20066;-67
2022/11/20 06:31:34;;;;;;;21.80;16.05;;;;;;;-3.29;100.00;101155.94;5002668;28;20044;-67
2022/11/20 06:34:00;;;;;;;21.60;15.55;;;;;;;-3.33;100.00;101170.59;5004302;28;20022;-67
2022/11/20 06:36:25;;;;;;;23.17;16.15;;;;;;;-3.38;100.00;101159.41;5009045;28;20034;-67
2022/11/20 06:38:51;;;;;;;22.77;16.38;;;;;;;-3.41;100.00;101165.03;5005773;28;20056;-67
2022/11/20 06:41:19;;;;;;;21.08;15.90;;;;;;;-3.45;100.00;101167.16;5008709;28;20112;-67
2022/11/20 06:43:44;;;;;;;23.40;16.35;;;;;;;-3.44;100.00;101165.31;5008250;28;20030;-67
2022/11/20 06:46:11;;;;;;;22.35;16.63;;;;;;;-3.39;100.00;101163.09;5007052;28;20041;-67
2022/11/20 06:48:36;;;;;;;22.90;16.88;;;;;;;-3.33;100.00;101156.31;5007818;28;20040;-67
2022/11/20 06:51:06;;;;;;;24.20;17.20;;;;;;;-3.25;100.00;101151.13;5008472;28;20026;-67
2022/11/20 06:53:32;;;;;;;24.30;17.27;;;;;;;-3.21;100.00;101150.72;5008398;28;20042;-67
2022/11/20 06:55:57;;;;;;;23.95;18.13;;;;;;;-3.17;100.00;101145.94;5006056;28;20037;-67
2022/11/20 06:58:23;;;;;;;22.85;17.23;;;;;;;-3.15;100.00;101152.84;5007920;28;20054;-67
2022/11/20 07:00:48;;;;;;;25.08;17.40;;;;;;;-3.11;100.00;101139.16;5009105;28;20053;-67
2022/11/20 07:03:14;;;;;;;24.02;17.30;;;;;;;-3.11;100.00;101145.38;5008290;28;20030;-67
2022/11/20 07:05:40;;;;;;;23.70;17.00;;;;;;;-3.10;100.00;101140.88;5008167;28;20049;-67
2022/11/20 07:08:06;;;;;;;23.73;16.75;;;;;;;-3.09;100.00;101139.88;5005067;28;20072;-67
2022/11/20 07:10:32;;;;;;;25.50;19.02;;;;;;;-3.07;100.00;101140.59;5008295;28;20034;-67
2022/11/20 07:12:57;;;;;;;26.42;19.20;;;;;;;-3.06;100.00;101145.00;5006145;28;20436;-67
2022/11/20 07:15:24;;;;;;;26.33;18.92;;;;;;;-3.04;100.00;101145.69;5008743;28;20033;-67
2022/11/20 07:17:49;;;;;;;25.88;18.70;;;;;;;-2.98;100.00;101139.81;5007249;28;20046;-67
2022/11/20 07:20:15;;;;;;;25.25;19.17;;;;;;;-2.94;100.00;101133.16;5003325;28;20039;-67
2022/11/20 07:22:40;;;;;;;25.20;18.40;;;;;;;-2.88;100.00;101138.00;5007854;28;20018;-67
2022/11/20 07:25:06;;;;;;;26.42;19.05;;;;;;;-2.84;100.00;101144.78;5008101;28;20116;-67
2022/11/20 07:27:32;;;;;;;28.92;20.75;;;;;;;-2.77;100.00;101147.78;5005300;28;20034;-67
2022/11/20 07:29:57;;;;;;;26.65;19.08;;;;;;;-2.69;100.00;101139.88;5007884;28;20080;-67
2022/11/20 07:32:23;;;;;;;27.42;18.60;;;;;;;-2.63;100.00;101134.81;5003991;28;20034;-67
2022/11/20 07:34:48;;;;;;;25.67;19.02;;;;;;;-2.54;100.00;101119.66;5023417;28;20093;-67
2022/11/20 07:37:14;;;;;;;28.70;20.02;;;;;;;-2.44;100.00;101116.97;5015167;28;20092;-67
2022/11/20 07:39:39;;;;;;;26.67;19.35;;;;;;;-2.31;100.00;101112.19;5007641;28;20034;-67
2022/11/20 07:42:06;;;;;;;26.17;19.27;;;;;;;-2.22;100.00;101111.34;5005876;28;20030;-67
2022/11/20 07:44:31;;;;;;;26.95;19.27;;;;;;;-2.12;100.00;101122.97;5008855;28;20022;-67
2022/11/20 07:46:57;;;;;;;25.08;18.48;;;;;;;-2.07;100.00;101119.00;5006998;28;20112;-67
2022/11/20 07:49:22;;;;;;;25.67;19.10;;;;;;;-2.05;100.00;101127.78;5007413;28;20108;-67
2022/11/20 07:51:50;;;;;;;26.77;18.45;;;;;;;-2.02;100.00;101122.97;5007029;28;20109;-67
2022/11/20 07:54:15;;;;;;;25.85;19.30;;;;;;;-1.97;100.00;101125.22;5008466;28;20018;-67
2022/11/20 07:56:40;;;;;;;25.17;19.35;;;;;;;-1.95;100.00;101125.94;5008482;28;20464;-67
2022/11/20 07:59:05;;;;;;;25.75;20.13;;;;;;;-1.90;100.00;101129.03;5005325;28;20025;-67
2022/11/20 08:01:31;;;;;;;26.20;19.30;;;;;;;-1.84;100.00;101131.16;5007848;28;20041;-67
2022/11/20 08:03:56;;;;;;;25.65;19.63;;;;;;;-1.77;100.00;101131.41;5008008;28;20042;-67
2022/11/20 08:06:21;;;;;;;27.50;19.70;;;;;;;-1.72;100.00;101135.41;5004364;28;20468;-67
2022/11/20 08:08:47;;;;;;;34.25;24.33;;;;;;;-1.64;100.00;101137.38;5005161;28;20061;-67
2022/11/20 08:14:15;;;;;;;27.40;21.02;;;;;;;-1.49;100.00;101132.38;5002734;28;20045;-68
2022/11/20 08:16:43;;;;;;;30.52;22.50;;;;;;;-1.41;100.00;101125.28;5007751;28;20068;-68
2022/11/20 08:19:08;;;;;;;67.40;49.35;;;;;;;-1.33;100.00;101119.97;5007844;28;20034;-68
2022/11/20 08:21:34;;;;;;;54.63;42.08;;;;;;;-1.18;100.00;101117.66;5008020;28;20036;-68
2022/11/20 08:23:59;;;;;;;29.30;21.45;;;;;;;-0.92;100.00;101122.38;5006481;28;20061;-68
2022/11/20 08:26:25;;;;;;;26.48;20.30;;;;;;;-0.87;100.00;101114.69;5007967;28;20029;-68
2022/11/20 08:28:55;;;;;;;24.05;20.13;;;;;;;-0.90;100.00;101112.31;5005669;28;20068;-68
2022/11/20 08:31:21;;;;;;;25.45;20.30;;;;;;;-0.89;100.00;101112.16;5008191;28;20037;-68
2022/11/20 08:33:46;;;;;;;25.85;20.20;;;;;;;-0.83;100.00;101106.16;5007104;28;20022;-68
2022/11/20 08:36:12;;;;;;;25.60;19.25;;;;;;;-0.77;100.00;101109.25;5007888;28;20124;-68
2022/11/20 08:38:37;;;;;;;26.85;21.52;;;;;;;-0.70;100.00;101118.44;5007326;28;20044;-68
2022/11/20 08:43:49;;;;;;;27.52;21.08;;;;;;;-0.59;100.00;101120.91;4991384;28;20060;-68
2022/11/20 08:46:14;;;;;;;27.67;20.88;;;;;;;-0.57;100.00;101117.06;5004997;28;20034;-68
2022/11/20 08:48:39;;;;;;;27.45;21.70;;;;;;;-0.48;100.00;101119.84;5007012;28;20041;-68
2022/11/20 08:51:05;;;;;;;27.65;20.92;;;;;;;-0.42;100.00;101113.84;5003886;28;20160;-68
2022/11/20 08:53:30;;;;;;;29.65;22.48;;;;;;;-0.31;100.00;101119.00;5006915;28;20045;-69
2022/11/20 08:55:57;;;;;;;26.73;20.23;;;;;;;-0.26;100.00;101114.00;5007291;28;20039;-69
2022/11/20 08:58:22;;;;;;;26.13;20.27;;;;;;;-0.21;100.00;101114.38;5007164;28;20022;-68
2022/11/20 09:00:48;;;;;;;28.33;20.45;;;;;;;-0.17;100.00;101114.94;5005629;28;20384;-68
2022/11/20 09:03:13;;;;;;;26.98;21.40;;;;;;;-0.16;100.00;101103.13;5004785;28;20040;-68
2022/11/20 09:05:38;;;;;;;25.90;20.15;;;;;;;-0.09;100.00;101099.66;5001955;28;20026;-68
2022/11/20 09:08:03;;;;;;;25.83;20.48;;;;;;;-0.07;100.00;101105.75;5006365;28;20461;-68
2022/11/20 09:10:29;;;;;;;26.60;20.52;;;;;;;0.03;100.00;101096.72;5005993;28;20030;-68
2022/11/20 09:12:55;;;;;;;26.55;21.00;;;;;;;0.09;99.79;101098.78;5005729;28;20434;-68
2022/11/20 09:15:21;;;;;;;26.48;20.42;;;;;;;0.18;100.00;101100.56;5007155;28;20026;-67
2022/11/20 09:17:57;;;;;;;29.90;21.63;;;;;;;0.22;99.61;101099.25;5003148;28;20100;-68
2022/11/20 09:20:24;;;;;;;24.88;19.67;;;;;;;0.20;99.04;101091.31;5006711;28;20057;-68
2022/11/20 09:22:49;;;;;;;27.27;20.52;;;;;;;0.19;99.42;101100.38;5005875;28;20476;-68
2022/11/20 09:25:15;;;;;;;26.05;20.38;;;;;;;0.21;99.72;101090.28;5005747;28;20045;-67
2022/11/20 09:27:43;;;;;;;25.48;20.20;;;;;;;0.23;100.00;101087.44;5003181;28;20037;-68
2022/11/20 09:30:09;;;;;;;25.88;20.05;;;;;;;0.24;99.86;101084.56;5004608;28;20030;-68
2022/11/20 09:32:35;;;;;;;27.92;20.48;;;;;;;0.23;100.00;101076.63;4996775;28;20491;-67
2022/11/20 09:35:01;;;;;;;29.02;23.00;;;;;;;0.24;100.00;101073.75;4994374;28;20128;-68
2022/11/20 09:37:26;;;;;;;30.30;21.40;;;;;;;0.30;100.00;101076.84;4992099;28;20088;-68
2022/11/20 09:39:51;;;;;;;27.83;21.88;;;;;;;0.32;100.00;101070.28;5010696;28;20080;-69
2022/11/20 09:42:25;;;;;;;25.88;20.17;;;;;;;0.40;100.00;101066.75;5017359;28;20486;-68
2022/11/20 09:45:08;;;;;;;27.60;20.67;;;;;;;0.43;100.00;101063.75;5030198;28;20356;-69
2022/11/20 09:47:48;;;;;;;29.92;21.30;;;;;;;0.50;100.00;101065.66;5022991;28;20029;-68
2022/11/20 09:50:27;;;;;;;29.27;20.88;;;;;;;0.58;100.00;101064.84;5010236;28;20021;-68
2022/11/20 09:53:13;;;;;;;31.20;21.35;;;;;;;0.65;100.00;101062.34;5009687;28;20026;-68
2022/11/20 09:55:39;;;;;;;27.92;20.38;;;;;;;0.70;100.00;101065.41;5010270;28;20033;-68
2022/11/20 09:58:21;;;;;;;29.15;23.05;;;;;;;0.77;100.00;101059.22;5005499;28;20510;-68
2022/11/20 10:00:47;;;;;;;30.17;23.05;;;;;;;0.85;100.00;101054.84;5009474;28;20369;-69
2022/11/20 10:03:29;;;;;;;27.27;20.75;;;;;;;0.88;100.00;101044.56;5008231;28;20502;-68
2022/11/20 10:05:55;;;;;;;29.17;20.88;;;;;;;0.96;100.00;101054.53;5009789;28;20043;-70
2022/11/20 10:08:31;;;;;;;31.45;22.05;;;;;;;1.00;100.00;101045.09;5005761;28;20034;-68
2022/11/20 10:11:17;;;;;;;29.45;21.60;;;;;;;1.01;100.00;101028.75;5016233;28;20053;-69
2022/11/20 10:13:57;;;;;;;28.67;21.13;;;;;;;1.08;100.00;101034.31;5028073;28;20096;-67
2022/11/20 10:16:53;;;;;;;31.48;22.50;;;;;;;1.16;100.00;101037.03;5011120;28;20034;-69
2022/11/20 10:20:03;;;;;;;33.50;22.08;;;;;;;1.24;100.00;101022.69;4988491;28;20038;-69
2022/11/20 10:22:38;;;;;;;31.65;22.40;;;;;;;1.29;100.00;101014.94;5006689;28;20049;-69
2022/11/20 10:25:14;;;;;;;33.60;22.40;;;;;;;1.35;100.00;101013.41;5027717;28;20127;-69
2022/11/20 10:28:13;;;;;;;33.92;22.40;;;;;;;1.40;100.00;101008.34;5016276;28;20037;-69
2022/11/20 10:30:43;;;;;;;36.70;23.45;;;;;;;1.43;100.00;100994.50;5010061;28;20064;-69
2022/11/20 10:33:19;;;;;;;37.53;22.92;;;;;;;1.52;100.00;100978.09;5004895;28;20033;-68
2022/11/20 10:35:50;;;;;;;37.75;24.02;;;;;;;1.63;100.00;100979.63;5008642;28;20108;-69
2022/11/20 10:38:21;;;;;;;38.63;24.75;;;;;;;1.71;100.00;100973.34;5006693;28;20072;-68
2022/11/20 10:41:24;;;;;;;39.83;24.15;;;;;;;1.81;100.00;100949.63;5005477;28;20038;-69
2022/11/20 10:43:44;;;;;;;42.30;25.50;;;;;;;1.93;100.00;100956.41;5005975;28;20786;-69
2022/11/20 10:46:19;;;;;;;42.20;26.58;;;;;;;2.08;100.00;100934.88;5023372;28;20068;-69
2022/11/20 10:48:47;;;;;;;43.63;25.45;;;;;;;2.26;100.00;100930.06;5009431;28;20025;-68
2022/11/20 10:51:39;;;;;;;43.15;24.50;;;;;;;2.43;100.00;100932.72;5001685;28;20038;-69
2022/11/20 10:54:25;;;;;;;42.55;25.13;;;;;;;2.51;100.00;100933.53;5007152;28;20041;-69
2022/11/20 10:56:53;;;;;;;43.85;24.63;;;;;;;2.55;99.43;100915.91;5007387;28;20396;-68
2022/11/20 10:59:37;;;;;;;47.07;26.37;;;;;;;2.50;98.90;100920.16;5003451;28;20038;-68
2022/11/20 11:02:21;;;;;;;42.40;25.45;;;;;;;2.43;99.19;100916.44;5004403;28;20037;-69
2022/11/20 11:04:54;;;;;;;45.15;27.08;;;;;;;2.41;100.00;100913.91;5007593;28;20116;-69
2022/11/20 11:07:27;;;;;;;46.53;25.77;;;;;;;2.42;99.61;100912.91;5007319;28;20030;-68
2022/11/20 11:09:54;;;;;;;42.08;25.10;;;;;;;2.45;100.00;100917.97;5007347;28;20634;-68
2022/11/20 11:12:28;;;;;;;50.23;27.40;;;;;;;2.41;100.00;100908.50;5005381;28;20075;-69
2022/11/20 11:14:55;;;;;;;41.95;25.58;;;;;;;2.33;100.00;100905.81;5008071;28;20475;-68
2022/11/20 11:17:29;;;;;;;48.95;27.23;;;;;;;2.33;100.00;100908.53;5007284;28;20025;-68
2022/11/20 11:20:14;;;;;;;47.78;26.88;;;;;;;2.30;100.00;100901.59;5007761;28;20045;-69